Time;durP1;ratioP1;P1;durP2;ratioP2;P2;SDS_P1;SDS_P2;PMS_P1;PMS_P2;Temp;Humidity;BMP_temperature;BMP_pressure;BME280_temperature;BME280_humidity;BME280_pressure;Samples;Min_cycle;Max_cycle;Signal;HPM_P1;HPM_P2
2023/04/25 00:01:12;;;;;;;23.77;3.67;;;6.90;99.90;;;;;;5015448;28;20533;-80
2023/04/25 00:03:38;;;;;;;17.77;3.35;;;6.80;99.90;;;;;;5025372;28;20446;-79
2023/04/25 00:06:05;;;;;;;24.08;3.67;;;6.80;99.90;;;;;;5054978;28;20041;-79
2023/04/25 00:08:30;;;;;;;22.75;3.55;;;6.80;99.90;;;;;;5025221;28;20383;-80
2023/04/25 00:10:57;;;;;;;17.00;3.47;;;7.10;99.90;;;;;;5020164;28;20044;-78
2023/04/25 00:13:23;;;;;;;27.38;4.82;;;7.00;99.90;;;;;;5017677;28;20041;-78
2023/04/25 00:15:49;;;;;;;18.70;3.90;;;6.80;99.90;;;;;;5049939;28;20041;-77
2023/04/25 00:18:15;;;;;;;24.48;3.58;;;6.80;99.90;;;;;;5025460;28;20048;-78
2023/04/25 00:20:46;;;;;;;19.38;3.85;;;6.80;99.90;;;;;;5020257;28;20052;-78
2023/04/25 00:23:17;;;;;;;21.92;4.57;;;6.80;99.90;;;;;;5018400;28;20072;-78
2023/04/25 00:25:47;;;;;;;15.65;3.10;;;6.80;99.90;;;;;;5022785;28;20405;-78
2023/04/25 00:28:13;;;;;;;21.10;3.30;;;6.70;99.90;;;;;;5024729;28;20053;-78
2023/04/25 00:30:40;;;;;;;19.80;3.75;;;6.80;99.90;;;;;;5046409;28;20044;-78
2023/04/25 00:33:07;;;;;;;11.82;2.67;;;6.70;99.90;;;;;;5023027;28;20049;-78
2023/04/25 00:35:33;;;;;;;19.20;3.17;;;6.70;99.90;;;;;;5024678;28;20076;-79
2023/04/25 00:37:59;;;;;;;23.48;3.63;;;6.70;99.90;;;;;;5024641;28;20147;-78
2023/04/25 00:40:25;;;;;;;17.55;2.67;;;6.60;99.90;;;;;;5053261;28;20069;-79
2023/04/25 00:42:52;;;;;;;19.88;3.00;;;6.60;99.90;;;;;;4998318;28;20053;-79
2023/04/25 00:45:19;;;;;;;21.13;3.40;;;6.60;99.90;;;;;;5009023;28;20038;-78
2023/04/25 00:47:45;;;;;;;17.10;2.65;;;6.70;99.90;;;;;;5005460;28;20060;-79
2023/04/25 00:50:12;;;;;;;25.45;3.75;;;6.50;99.90;;;;;;5018486;28;20176;-79
2023/04/25 00:52:40;;;;;;;21.83;5.05;;;6.50;99.90;;;;;;5022534;28;20056;-78
2023/04/25 00:55:07;;;;;;;13.25;2.75;;;6.50;99.90;;;;;;5049517;28;20077;-79
2023/04/25 00:57:33;;;;;;;17.80;2.67;;;6.50;99.90;;;;;;5021099;28;20503;-80
2023/04/25 00:59:59;;;;;;;13.13;2.33;;;6.50;99.90;;;;;;5045875;28;20123;-79
2023/04/25 01:02:26;;;;;;;17.23;2.67;;;6.50;99.90;;;;;;5024315;28;20556;-79
2023/04/25 01:04:53;;;;;;;16.15;2.60;;;7.10;99.90;;;;;;5009845;28;20048;-79
2023/04/25 01:07:19;;;;;;;20.63;2.78;;;6.40;99.90;;;;;;5041969;28;20132;-79
2023/04/25 01:09:46;;;;;;;16.58;2.47;;;6.40;99.90;;;;;;5020690;28;20555;-79
2023/04/25 01:12:12;;;;;;;14.27;2.30;;;6.40;99.90;;;;;;5026525;28;20048;-79
2023/04/25 01:14:38;;;;;;;21.83;3.10;;;6.40;99.90;;;;;;5027111;28;20410;-79
2023/04/25 01:17:04;;;;;;;17.00;2.70;;;6.40;99.90;;;;;;5023408;28;20054;-79
2023/04/25 01:19:30;;;;;;;19.65;3.03;;;6.40;99.90;;;;;;5052971;28;20037;-79
2023/04/25 01:21:56;;;;;;;15.52;2.38;;;6.70;99.90;;;;;;5017075;28;20041;-79
2023/04/25 01:24:22;;;;;;;20.27;2.67;;;6.40;99.90;;;;;;5043894;28;20054;-79
2023/04/25 01:26:52;;;;;;;15.52;2.35;;;6.30;99.90;;;;;;5020762;28;20142;-79
2023/04/25 01:29:21;;;;;;;14.75;2.55;;;6.30;99.90;;;;;;5015013;28;20161;-79
2023/04/25 01:31:47;;;;;;;15.82;2.53;;;6.60;99.90;;;;;;5047674;28;20402;-79
2023/04/25 01:34:13;;;;;;;15.18;2.70;;;6.30;99.90;;;;;;5051523;28;20049;-79
2023/04/25 01:36:40;;;;;;;13.25;2.55;;;6.50;99.90;;;;;;5016284;28;20697;-79
2023/04/25 01:39:06;;;;;;;17.77;2.78;;;6.30;99.90;;;;;;5004252;28;20422;-79
2023/04/25 01:41:34;;;;;;;21.25;2.50;;;6.30;99.90;;;;;;5023642;28;20045;-79
2023/04/25 01:44:00;;;;;;;24.42;2.60;;;6.20;99.90;;;;;;5021453;28;20379;-79
2023/04/25 01:46:27;;;;;;;18.60;2.83;;;6.20;99.90;;;;;;5003089;28;20049;-78
2023/04/25 01:48:53;;;;;;;11.48;2.10;;;6.20;99.90;;;;;;5023025;28;20103;-79
2023/04/25 01:51:19;;;;;;;19.00;2.97;;;6.20;99.90;;;;;;5001071;28;20045;-78
2023/04/25 01:53:46;;;;;;;22.80;3.65;;;6.20;99.90;;;;;;5007260;28;20048;-79
2023/04/25 01:56:11;;;;;;;21.02;2.53;;;6.70;99.90;;;;;;5055873;28;20049;-77
2023/04/25 01:58:37;;;;;;;17.27;2.13;;;6.20;99.90;;;;;;4998563;28;20095;-78
2023/04/25 02:01:03;;;;;;;19.58;2.42;;;6.20;99.90;;;;;;5021302;28;20050;-78
2023/04/25 02:03:31;;;;;;;14.25;2.25;;;6.20;99.90;;;;;;5044228;28;20049;-78
2023/04/25 02:05:56;;;;;;;18.52;2.47;;;6.10;99.90;;;;;;5012652;28;20121;-77
2023/04/25 02:08:22;;;;;;;14.15;2.40;;;6.10;99.90;;;;;;5019162;28;20128;-77
2023/04/25 02:10:48;;;;;;;19.67;2.85;;;6.20;99.90;;;;;;5026390;28;20042;-78
2023/04/25 02:13:13;;;;;;;19.95;3.42;;;6.10;99.90;;;;;;5026814;28;20068;-78
2023/04/25 02:15:39;;;;;;;22.52;3.75;;;6.10;99.90;;;;;;5018751;28;20104;-78
2023/04/25 02:18:06;;;;;;;13.20;2.10;;;6.10;99.90;;;;;;5018847;28;20084;-78
2023/04/25 02:20:32;;;;;;;15.60;2.47;;;6.10;99.90;;;;;;5022901;28;20049;-78
2023/04/25 02:22:58;;;;;;;13.43;2.80;;;6.20;99.90;;;;;;5019357;28;20054;-77
2023/04/25 02:25:27;;;;;;;15.88;2.97;;;6.10;99.90;;;;;;5009662;28;20426;-79
2023/04/25 02:27:53;;;;;;;17.15;2.72;;;6.10;99.90;;;;;;5036179;28;20049;-77
2023/04/25 02:30:20;;;;;;;17.95;2.65;;;6.00;99.90;;;;;;5026995;28;20057;-78
2023/04/25 02:32:45;;;;;;;19.50;2.42;;;6.10;99.90;;;;;;5027693;28;20045;-78
2023/04/25 02:35:11;;;;;;;16.67;2.70;;;6.40;99.90;;;;;;5059809;28;20053;-78
2023/04/25 02:37:39;;;;;;;14.15;2.55;;;6.00;99.90;;;;;;5025246;28;20418;-78
2023/04/25 02:40:05;;;;;;;15.38;2.80;;;6.10;99.90;;;;;;5023758;28;20037;-78
2023/04/25 02:42:31;;;;;;;19.58;2.95;;;6.10;99.90;;;;;;5058007;28;20160;-78
2023/04/25 02:44:57;;;;;;;15.98;2.25;;;6.00;99.90;;;;;;5001844;28;20164;-78
2023/04/25 02:47:23;;;;;;;18.77;3.83;;;6.00;99.90;;;;;;5024807;28;20053;-79
2023/04/25 02:49:48;;;;;;;16.50;2.28;;;6.00;99.90;;;;;;5028379;28;20073;-77
2023/04/25 02:52:14;;;;;;;18.35;2.40;;;6.10;99.90;;;;;;5029899;28;20045;-79
2023/04/25 02:54:40;;;;;;;15.30;1.80;;;6.00;99.90;;;;;;5026052;28;20049;-78
2023/04/25 02:57:07;;;;;;;12.85;2.40;;;6.00;99.90;;;;;;5025608;28;20069;-78
2023/04/25 02:59:33;;;;;;;13.55;2.15;;;6.10;99.90;;;;;;5024528;28;20413;-77
2023/04/25 03:01:58;;;;;;;16.92;3.17;;;6.10;99.90;;;;;;5026987;28;20042;-77
2023/04/25 03:04:27;;;;;;;18.25;3.00;;;6.00;99.90;;;;;;5028362;28;20391;-77
2023/04/25 03:06:53;;;;;;;12.45;2.40;;;6.10;99.90;;;;;;5051072;28;20060;-77
2023/04/25 03:09:19;;;;;;;16.52;2.63;;;5.90;99.90;;;;;;5029014;28;20038;-78
2023/04/25 03:11:46;;;;;;;15.23;1.85;;;6.70;99.90;;;;;;5010893;28;20131;-78
2023/04/25 03:14:12;;;;;;;10.90;1.90;;;6.00;99.90;;;;;;5027960;28;20046;-78
2023/04/25 03:16:38;;;;;;;16.45;2.80;;;5.90;99.90;;;;;;5027902;28;20485;-77
2023/04/25 03:19:04;;;;;;;10.40;1.90;;;5.90;99.90;;;;;;5036516;28;20133;-78
2023/04/25 03:21:32;;;;;;;16.27;2.10;;;5.90;99.90;;;;;;5008781;28;20058;-78
2023/04/25 03:23:58;;;;;;;11.02;1.80;;;5.90;99.90;;;;;;5027281;28;20049;-77
2023/04/25 03:26:26;;;;;;;10.85;1.85;;;5.80;99.90;;;;;;5023644;28;20045;-78
2023/04/25 03:28:52;;;;;;;12.23;1.70;;;5.90;99.90;;;;;;5022663;28;20728;-78
2023/04/25 03:31:17;;;;;;;14.10;1.60;;;5.80;99.90;;;;;;5025262;28;20038;-79
2023/04/25 03:33:43;;;;;;;14.27;2.00;;;5.80;99.90;;;;;;5019967;28;20184;-78
2023/04/25 03:36:09;;;;;;;12.18;2.05;;;5.80;99.90;;;;;;5026201;28;20053;-79
2023/04/25 03:38:35;;;;;;;14.27;1.95;;;5.70;99.90;;;;;;5025060;28;20041;-78
2023/04/25 03:41:01;;;;;;;15.23;3.08;;;5.70;99.90;;;;;;5024973;28;20056;-78
2023/04/25 03:43:27;;;;;;;24.52;2.83;;;5.70;99.90;;;;;;5026625;28;20042;-78
2023/04/25 03:45:53;;;;;;;13.95;1.83;;;5.70;99.90;;;;;;5027131;28;20048;-78
2023/04/25 03:48:24;;;;;;;11.15;1.85;;;5.60;99.90;;;;;;5020004;28;20080;-79
2023/04/25 03:50:50;;;;;;;7.60;1.87;;;5.60;99.90;;;;;;5059529;28;20414;-78
2023/04/25 03:53:16;;;;;;;11.52;2.03;;;5.60;99.90;;;;;;5027698;28;20041;-78
2023/04/25 03:55:41;;;;;;;14.15;1.65;;;5.90;99.90;;;;;;5008153;28;20436;-78
2023/04/25 03:58:08;;;;;;;17.15;2.08;;;5.60;99.90;;;;;;5022198;28;20037;-79
2023/04/25 04:00:35;;;;;;;10.07;1.88;;;6.10;99.90;;;;;;5019272;28;20413;-78
2023/04/25 04:03:01;;;;;;;17.67;2.28;;;5.50;99.90;;;;;;5005978;28;20053;-78
2023/04/25 04:05:27;;;;;;;14.32;1.90;;;5.50;99.90;;;;;;5049815;28;20549;-78
2023/04/25 04:07:53;;;;;;;18.08;2.20;;;5.50;99.90;;;;;;5024407;28;20050;-77
2023/04/25 04:10:22;;;;;;;18.60;2.53;;;5.50;99.90;;;;;;5017584;28;20107;-77
2023/04/25 04:12:47;;;;;;;17.75;2.60;;;5.40;99.90;;;;;;5053855;28;20045;-78
2023/04/25 04:15:13;;;;;;;19.20;2.47;;;5.40;99.90;;;;;;5006449;28;20735;-78
2023/04/25 04:17:40;;;;;;;18.73;2.65;;;5.40;99.90;;;;;;5018271;28;20033;-78
2023/04/25 04:20:07;;;;;;;11.30;2.13;;;5.40;99.90;;;;;;5023706;28;20041;-78
2023/04/25 04:22:33;;;;;;;13.43;2.22;;;5.40;99.90;;;;;;5009790;28;20042;-78
2023/04/25 04:24:58;;;;;;;14.75;2.10;;;5.40;99.90;;;;;;4998361;28;20055;-78
2023/04/25 04:27:24;;;;;;;10.98;1.92;;;5.40;99.90;;;;;;5023391;28;20651;-78
2023/04/25 04:29:52;;;;;;;14.68;2.05;;;5.30;99.90;;;;;;5019714;28;20550;-77
2023/04/25 04:32:18;;;;;;;13.05;1.92;;;5.40;99.90;;;;;;5005591;28;20045;-78
2023/04/25 04:34:44;;;;;;;18.90;1.92;;;5.30;99.90;;;;;;5007695;28;20406;-78
2023/04/25 04:37:10;;;;;;;19.85;2.40;;;5.50;99.90;;;;;;5021154;28;20050;-78
2023/04/25 04:39:36;;;;;;;13.13;2.17;;;5.30;99.90;;;;;;5016763;28;20102;-78
2023/04/25 04:42:03;;;;;;;11.32;2.30;;;5.30;99.90;;;;;;4997052;28;20067;-79
2023/04/25 04:44:32;;;;;;;14.13;1.95;;;5.30;99.90;;;;;;5014189;28;20149;-78
2023/04/25 04:46:58;;;;;;;17.02;2.10;;;5.30;99.90;;;;;;5020518;28;20089;-78
2023/04/25 04:49:25;;;;;;;13.77;2.03;;;5.30;99.90;;;;;;5057471;28;20038;-78
2023/04/25 04:51:51;;;;;;;15.88;2.20;;;5.30;99.90;;;;;;5010767;28;20479;-78
2023/04/25 04:54:16;;;;;;;14.57;1.95;;;5.30;99.90;;;;;;5032304;28;20087;-77
2023/04/25 04:56:42;;;;;;;17.67;3.10;;;5.30;99.90;;;;;;5026565;28;20149;-76
2023/04/25 04:59:08;;;;;;;10.32;1.80;;;5.30;99.90;;;;;;5031489;28;20037;-78
2023/04/25 05:01:35;;;;;;;13.50;1.70;;;5.30;99.90;;;;;;5015958;28;20053;-77
2023/04/25 05:04:02;;;;;;;9.98;1.90;;;5.30;99.90;;;;;;5018295;28;20119;-78
2023/04/25 05:06:31;;;;;;;14.93;2.03;;;5.30;99.90;;;;;;5003023;28;20032;-77
2023/04/25 05:08:57;;;;;;;18.30;2.75;;;5.30;99.90;;;;;;5022996;28;20048;-78
2023/04/25 05:11:27;;;;;;;14.63;2.17;;;6.00;99.90;;;;;;5021854;28;20052;-78
2023/04/25 05:13:53;;;;;;;8.60;1.55;;;5.30;99.90;;;;;;5009939;28;20053;-78
2023/04/25 05:16:20;;;;;;;16.80;2.08;;;5.30;99.90;;;;;;5024963;28;20049;-78
2023/04/25 05:18:46;;;;;;;15.45;2.05;;;5.40;99.90;;;;;;5009159;28;20056;-78
2023/04/25 05:21:12;;;;;;;10.25;1.52;;;5.30;99.90;;;;;;5008680;28;20033;-77
2023/04/25 05:23:38;;;;;;;13.73;2.75;;;5.50;99.90;;;;;;5008506;28;20049;-78
2023/04/25 05:26:04;;;;;;;13.63;2.38;;;5.70;99.90;;;;;;5003990;28;20115;-78
2023/04/25 05:28:30;;;;;;;11.57;1.85;;;5.90;99.90;;;;;;5021617;28;20057;-78
2023/04/25 05:30:56;;;;;;;11.05;2.42;;;6.10;99.90;;;;;;5014716;28;20041;-79
2023/04/25 05:33:22;;;;;;;11.73;1.98;;;6.30;99.90;;;;;;5026276;28;20045;-78
2023/04/25 05:35:48;;;;;;;12.85;2.00;;;7.00;99.90;;;;;;5024781;28;20060;-78
2023/04/25 05:38:14;;;;;;;13.15;2.20;;;6.60;99.90;;;;;;5018927;28;20089;-78
2023/04/25 05:40:40;;;;;;;10.65;2.53;;;6.80;99.90;;;;;;5024020;28;20085;-78
2023/04/25 05:43:07;;;;;;;17.70;2.15;;;6.80;99.90;;;;;;5012916;28;20502;-79
2023/04/25 05:45:32;;;;;;;13.32;2.25;;;6.80;99.90;;;;;;5017758;28;20040;-78
2023/04/25 05:47:58;;;;;;;13.60;2.10;;;6.80;99.90;;;;;;5031413;28;20422;-77
2023/04/25 05:50:24;;;;;;;15.50;2.08;;;6.70;99.90;;;;;;5022530;28;20045;-79
2023/04/25 05:52:51;;;;;;;11.75;1.95;;;6.60;99.90;;;;;;5012833;28;20232;-78
2023/04/25 05:55:16;;;;;;;9.80;1.65;;;6.50;99.90;;;;;;4999420;28;20099;-78
2023/04/25 05:57:44;;;;;;;18.20;3.13;;;6.50;99.90;;;;;;5020100;28;20053;-78
2023/04/25 06:00:13;;;;;;;18.98;2.60;;;6.60;99.90;;;;;;5058020;28;20095;-79
2023/04/25 06:02:39;;;;;;;12.52;2.30;;;6.60;99.90;;;;;;5001331;28;20077;-78
2023/04/25 06:05:05;;;;;;;8.95;1.45;;;6.60;99.90;;;;;;5035413;28;20080;-78
2023/04/25 06:07:30;;;;;;;12.20;2.30;;;6.60;99.90;;;;;;5024124;28;20134;-78
2023/04/25 06:09:56;;;;;;;12.05;1.73;;;6.60;99.90;;;;;;5021106;28;20050;-77
2023/04/25 06:12:22;;;;;;;11.57;1.98;;;6.60;99.90;;;;;;5039112;28;20045;-77
2023/04/25 06:14:48;;;;;;;9.57;1.50;;;6.60;99.90;;;;;;5024011;28;20530;-78
2023/04/25 06:17:13;;;;;;;17.02;2.55;;;6.50;99.90;;;;;;5024403;28;20179;-77
2023/04/25 06:19:42;;;;;;;10.18;1.67;;;6.50;99.90;;;;;;5005049;28;20049;-77
2023/04/25 06:22:08;;;;;;;13.55;1.60;;;6.50;99.90;;;;;;5019411;28;20422;-77
2023/04/25 06:24:34;;;;;;;11.45;1.73;;;6.50;99.90;;;;;;5054776;28;20041;-78
2023/04/25 06:27:01;;;;;;;9.95;2.10;;;6.50;99.90;;;;;;5008842;28;20098;-77
2023/04/25 06:29:26;;;;;;;10.98;1.80;;;7.30;99.90;;;;;;5028600;28;20044;-77
2023/04/25 06:31:52;;;;;;;11.45;1.63;;;6.90;99.90;;;;;;5025953;28;20561;-78
2023/04/25 06:34:18;;;;;;;8.13;1.48;;;6.50;99.90;;;;;;5027309;28;20053;-77
2023/04/25 06:36:44;;;;;;;8.98;1.60;;;6.50;99.90;;;;;;5044763;28;20045;-78
2023/04/25 06:39:10;;;;;;;9.85;1.80;;;6.50;99.90;;;;;;5025243;28;20474;-78
2023/04/25 06:41:36;;;;;;;8.98;1.75;;;6.50;99.90;;;;;;5014702;28;20033;-78
2023/04/25 06:44:02;;;;;;;10.13;1.52;;;6.60;99.90;;;;;;5030878;28;20060;-77
2023/04/25 06:46:28;;;;;;;7.75;1.42;;;6.70;99.90;;;;;;5020312;28;20132;-78
2023/04/25 06:48:54;;;;;;;9.95;2.17;;;6.80;99.90;;;;;;5018539;28;20096;-78
2023/04/25 06:51:20;;;;;;;7.70;1.65;;;6.90;99.90;;;;;;5023803;28;20045;-77
2023/04/25 06:53:46;;;;;;;10.43;2.05;;;7.10;99.90;;;;;;5035549;28;20056;-78
2023/04/25 06:56:12;;;;;;;11.85;1.70;;;7.90;99.90;;;;;;5019091;28;20485;-77
2023/04/25 06:58:37;;;;;;;11.05;1.50;;;7.00;99.90;;;;;;5021434;28;20033;-79
2023/04/25 07:01:03;;;;;;;14.50;1.92;;;7.10;99.90;;;;;;5048653;28;20073;-78
2023/04/25 07:03:29;;;;;;;13.90;1.90;;;7.20;99.90;;;;;;5019743;28;20498;-79
2023/04/25 07:05:55;;;;;;;10.07;1.95;;;7.20;99.90;;;;;;5022607;28;20045;-78
2023/04/25 07:08:21;;;;;;;9.98;1.67;;;7.40;99.90;;;;;;5019567;28;20502;-78
2023/04/25 07:10:50;;;;;;;8.57;1.52;;;7.50;99.90;;;;;;5050677;28;20041;-79
2023/04/25 07:13:15;;;;;;;11.43;1.60;;;7.60;99.90;;;;;;5013065;28;20045;-79
2023/04/25 07:15:41;;;;;;;11.80;1.60;;;7.60;99.90;;;;;;5019946;28;20052;-79
2023/04/25 07:18:07;;;;;;;12.15;1.50;;;7.70;99.90;;;;;;5020280;28;20690;-79
2023/04/25 07:20:33;;;;;;;11.02;2.13;;;7.80;99.90;;;;;;5018956;28;20041;-79
2023/04/25 07:22:59;;;;;;;10.57;1.45;;;7.80;99.90;;;;;;5014056;28;20191;-79
2023/04/25 07:25:24;;;;;;;11.63;2.22;;;7.80;99.90;;;;;;5013976;28;20041;-80
2023/04/25 07:27:50;;;;;;;10.15;1.52;;;7.80;99.90;;;;;;5007510;28;20126;-79
2023/04/25 07:30:16;;;;;;;10.98;1.77;;;7.80;99.90;;;;;;5008625;28;20046;-79
2023/04/25 07:32:42;;;;;;;9.82;1.42;;;7.70;99.90;;;;;;4991944;28;20050;-79
2023/04/25 07:35:08;;;;;;;9.23;1.20;;;7.70;99.90;;;;;;5037641;28;20049;-78
2023/04/25 07:37:35;;;;;;;7.97;1.20;;;7.70;99.90;;;;;;5006846;28;20128;-79
2023/04/25 07:40:01;;;;;;;13.10;1.58;;;7.60;99.90;;;;;;5007505;28;20065;-78
2023/04/25 07:42:29;;;;;;;7.43;1.10;;;7.60;99.90;;;;;;5027034;28;20076;-79
2023/04/25 07:44:54;;;;;;;12.00;1.40;;;7.60;99.90;;;;;;5039652;28;20128;-79
2023/04/25 07:47:20;;;;;;;13.20;1.08;;;7.50;99.90;;;;;;5007044;28;21049;-79
2023/04/25 07:49:46;;;;;;;5.85;0.90;;;7.50;99.90;;;;;;5006243;28;20052;-80
2023/04/25 07:52:12;;;;;;;6.78;1.70;;;7.60;99.90;;;;;;4990803;28;20065;-78
2023/04/25 07:54:38;;;;;;;7.72;0.88;;;8.00;99.90;;;;;;5038895;28;20050;-80
2023/04/25 07:57:06;;;;;;;9.13;1.23;;;7.80;99.90;;;;;;5037294;28;20140;-79
2023/04/25 07:59:32;;;;;;;7.75;1.13;;;7.90;99.90;;;;;;4993163;28;20044;-78
2023/04/25 08:01:58;;;;;;;5.63;1.00;;;7.60;99.90;;;;;;4994381;28;20060;-79
2023/04/25 08:04:25;;;;;;;10.70;1.60;;;8.00;99.90;;;;;;4998012;28;20042;-80
2023/04/25 08:06:52;;;;;;;10.30;1.70;;;8.10;99.90;;;;;;5009742;28;20785;-80
2023/04/25 08:09:18;;;;;;;11.38;1.42;;;8.20;99.90;;;;;;4995211;28;20030;-81
2023/04/25 08:11:44;;;;;;;8.27;1.40;;;8.20;99.90;;;;;;5004166;28;20546;-78
2023/04/25 08:14:09;;;;;;;10.30;1.20;;;8.00;99.90;;;;;;5007960;28;20041;-78
2023/04/25 08:16:35;;;;;;;6.32;1.33;;;7.70;99.90;;;;;;5036212;28;20227;-77
2023/04/25 08:19:01;;;;;;;4.35;0.88;;;7.30;99.90;;;;;;5002583;28;20042;-78
2023/04/25 08:21:27;;;;;;;5.45;1.00;;;7.10;99.90;;;;;;5001772;28;20077;-78
2023/04/25 08:23:53;;;;;;;4.75;0.88;;;7.10;99.90;;;;;;5033964;28;20427;-78
2023/04/25 08:26:18;;;;;;;4.50;0.90;;;6.90;99.90;;;;;;4990552;28;20160;-78
2023/04/25 08:28:44;;;;;;;7.32;1.00;;;6.90;99.90;;;;;;5010776;28;20045;-80
2023/04/25 08:31:10;;;;;;;8.05;0.90;;;6.90;99.90;;;;;;5004418;28;20042;-78
2023/04/25 08:33:36;;;;;;;5.75;1.13;;;7.40;99.90;;;;;;5006014;28;20045;-78
2023/04/25 08:36:02;;;;;;;8.45;1.13;;;7.10;99.90;;;;;;5036407;28;20042;-77
2023/04/25 08:38:28;;;;;;;5.15;1.15;;;7.10;99.90;;;;;;5036977;28;20399;-78
2023/04/25 08:40:55;;;;;;;5.68;1.00;;;7.00;99.90;;;;;;4995401;28;20052;-79
2023/04/25 08:43:23;;;;;;;5.88;1.35;;;7.10;99.90;;;;;;4992760;28;20049;-79
2023/04/25 08:45:49;;;;;;;7.07;1.67;;;7.00;99.90;;;;;;5023274;28;20139;-78
2023/04/25 08:48:17;;;;;;;8.43;0.90;;;7.00;99.90;;;;;;5035155;28;21372;-79
2023/04/25 08:50:52;;;;;;;4.90;1.10;;;7.00;99.90;;;;;;5036389;28;20478;-79
2023/04/25 08:53:24;;;;;;;5.10;0.73;;;7.00;99.90;;;;;;5004929;28;20081;-77
2023/04/25 08:55:51;;;;;;;7.32;1.15;;;7.10;99.90;;;;;;5032734;28;20057;-79
2023/04/25 08:58:19;;;;;;;4.72;1.10;;;7.20;99.90;;;;;;5001949;28;20107;-78
2023/04/25 09:00:47;;;;;;;6.90;1.40;;;7.40;99.90;;;;;;5011710;28;21422;-78
2023/04/25 09:03:13;;;;;;;6.80;1.00;;;7.30;99.90;;;;;;4991155;28;20060;-78
2023/04/25 09:05:41;;;;;;;6.75;1.40;;;7.50;99.90;;;;;;5035113;28;20133;-78
2023/04/25 09:08:07;;;;;;;6.95;1.40;;;7.60;99.90;;;;;;4995046;28;20046;-78
2023/04/25 09:10:33;;;;;;;10.25;1.25;;;7.80;99.90;;;;;;5004450;28;20053;-80
2023/04/25 09:13:14;;;;;;;9.35;1.88;;;7.90;99.90;;;;;;5003310;28;20160;-78
2023/04/25 09:15:52;;;;;;;9.77;1.00;;;8.10;99.90;;;;;;5007026;28;20053;-78
2023/04/25 09:18:29;;;;;;;7.35;1.40;;;8.20;99.90;;;;;;5038258;28;20050;-78
2023/04/25 09:21:06;;;;;;;10.60;1.50;;;8.40;99.90;;;;;;5001391;28;20095;-79
2023/04/25 09:23:49;;;;;;;8.75;1.35;;;8.50;99.90;;;;;;5006152;28;20785;-79
2023/04/25 09:26:20;;;;;;;12.98;1.50;;;8.60;99.90;;;;;;5006544;28;20050;-78
2023/04/25 09:28:47;;;;;;;11.32;2.08;;;8.70;99.90;;;;;;5004934;28;20061;-79
2023/04/25 09:31:24;;;;;;;11.50;1.60;;;8.60;99.90;;;;;;5037641;28;20042;-79
2023/04/25 09:34:01;;;;;;;14.02;1.90;;;8.50;99.90;;;;;;5001140;28;20171;-79
2023/04/25 09:36:28;;;;;;;9.65;1.95;;;8.40;99.90;;;;;;5004559;28;21534;-79
2023/04/25 09:38:53;;;;;;;7.57;1.50;;;8.30;99.90;;;;;;5004991;28;20392;-79
2023/04/25 09:41:24;;;;;;;6.15;1.08;;;8.30;99.90;;;;;;5023945;28;20057;-78
2023/04/25 09:43:50;;;;;;;5.10;1.13;;;8.30;99.90;;;;;;5004354;28;20050;-80
2023/04/25 09:46:18;;;;;;;5.70;1.10;;;8.50;99.90;;;;;;5002970;28;20052;-79
2023/04/25 09:48:50;;;;;;;7.60;1.27;;;8.50;99.90;;;;;;5004725;28;20044;-78
2023/04/25 09:51:16;;;;;;;8.73;1.45;;;8.60;99.90;;;;;;5001355;28;20442;-80
2023/04/25 09:53:49;;;;;;;8.82;1.70;;;8.70;99.90;;;;;;5015624;28;20096;-79
2023/04/25 09:56:15;;;;;;;10.32;1.70;;;8.80;99.90;;;;;;5020814;28;20042;-79
2023/04/25 09:58:42;;;;;;;9.27;1.50;;;8.90;99.90;;;;;;5037862;28;20191;-79
2023/04/25 10:01:09;;;;;;;13.48;1.67;;;8.90;99.90;;;;;;5020894;28;20349;-78
2023/04/25 10:03:39;;;;;;;8.95;1.70;;;9.00;99.90;;;;;;5020410;28;20054;-79
2023/04/25 10:06:14;;;;;;;9.35;1.33;;;9.10;99.90;;;;;;5019774;28;20081;-77
2023/04/25 10:08:41;;;;;;;8.32;1.42;;;9.10;99.90;;;;;;5006063;28;20049;-78
2023/04/25 10:11:08;;;;;;;14.45;2.00;;;9.20;99.90;;;;;;5020473;28;20107;-79
2023/04/25 10:13:35;;;;;;;11.65;1.50;;;9.20;99.90;;;;;;5045807;28;20443;-79
2023/04/25 10:16:03;;;;;;;9.88;1.67;;;9.20;99.90;;;;;;5014460;28;20111;-80
2023/04/25 10:18:32;;;;;;;8.48;1.60;;;9.20;99.90;;;;;;5046954;28;20461;-79
2023/04/25 10:21:00;;;;;;;6.50;1.40;;;9.20;99.90;;;;;;5002336;28;20054;-80
2023/04/25 10:23:27;;;;;;;9.38;1.42;;;9.20;99.90;;;;;;5051609;28;20572;-79
2023/04/25 10:25:54;;;;;;;13.38;1.60;;;9.20;99.90;;;;;;4997608;28;20048;-77
2023/04/25 10:28:20;;;;;;;8.55;1.60;;;9.10;99.90;;;;;;5023486;28;20037;-79
2023/04/25 10:31:15;;;;;;;10.68;1.27;;;9.10;99.90;;;;;;5008534;28;20522;-78
2023/04/25 10:33:43;;;;;;;7.75;1.70;;;9.00;99.90;;;;;;5006545;28;20080;-78
2023/04/25 10:36:13;;;;;;;5.80;1.05;;;9.00;99.90;;;;;;4990429;28;20041;-78
2023/04/25 10:38:41;;;;;;;8.87;1.30;;;9.10;99.90;;;;;;4993325;28;20053;-78
2023/04/25 10:41:09;;;;;;;10.20;1.55;;;9.20;99.90;;;;;;5043219;28;20581;-79
2023/04/25 10:43:50;;;;;;;12.13;1.40;;;9.30;99.90;;;;;;5013193;28;20907;-78
2023/04/25 10:46:17;;;;;;;13.52;1.85;;;9.20;99.90;;;;;;5016545;28;20065;-77
2023/04/25 10:48:49;;;;;;;11.27;1.88;;;9.20;99.90;;;;;;5028492;28;20123;-79
2023/04/25 10:51:30;;;;;;;10.45;1.60;;;9.10;99.90;;;;;;5019071;28;20049;-78
2023/04/25 10:53:57;;;;;;;13.05;1.60;;;9.00;99.90;;;;;;5014479;28;20049;-79
2023/04/25 10:56:26;;;;;;;9.23;1.65;;;9.00;99.90;;;;;;4993516;28;20037;-78
2023/04/25 10:59:02;;;;;;;9.75;1.58;;;9.00;99.90;;;;;;5001477;28;20049;-78
2023/04/25 11:01:37;;;;;;;7.78;1.40;;;9.00;99.90;;;;;;5035371;28;20050;-78
2023/04/25 11:04:02;;;;;;;7.50;1.33;;;9.10;99.90;;;;;;5026650;28;20060;-79
2023/04/25 11:06:55;;;;;;;10.45;1.88;;;9.10;99.90;;;;;;5010528;28;20049;-79
2023/04/25 11:09:24;;;;;;;10.73;1.60;;;9.20;99.90;;;;;;5013804;28;20451;-79
2023/04/25 11:11:58;;;;;;;9.25;1.60;;;9.30;99.90;;;;;;5046251;28;20054;-77
2023/04/25 11:14:24;;;;;;;10.60;1.67;;;9.30;99.90;;;;;;5013811;28;20046;-78
2023/04/25 11:16:57;;;;;;;9.60;1.48;;;9.30;99.90;;;;;;5008039;28;20707;-77
2023/04/25 11:19:25;;;;;;;7.28;1.52;;;9.30;99.90;;;;;;5054356;28;20045;-78
2023/04/25 11:21:55;;;;;;;9.95;2.00;;;9.40;99.90;;;;;;5016106;28;20103;-77
2023/04/25 11:24:29;;;;;;;9.98;1.58;;;9.40;99.90;;;;;;5050606;28;20449;-78
2023/04/25 11:26:58;;;;;;;8.10;1.65;;;9.50;99.90;;;;;;5016613;28;20041;-78
2023/04/25 11:29:27;;;;;;;9.90;1.20;;;9.50;99.90;;;;;;5053980;28;20038;-78
2023/04/25 11:31:57;;;;;;;7.45;1.30;;;9.60;99.90;;;;;;5020337;28;20057;-80
2023/04/25 11:34:24;;;;;;;8.80;1.50;;;9.50;99.90;;;;;;5019228;28;20530;-77
2023/04/25 11:36:51;;;;;;;9.98;1.40;;;9.40;99.90;;;;;;5017041;28;20064;-78
2023/04/25 11:39:21;;;;;;;8.63;1.30;;;9.40;99.90;;;;;;5018227;28;20049;-76
2023/04/25 11:41:47;;;;;;;10.10;1.60;;;9.30;99.90;;;;;;5018213;28;20414;-80
2023/04/25 11:44:16;;;;;;;10.80;1.50;;;9.30;99.90;;;;;;5051445;28;20045;-77
2023/04/25 11:46:43;;;;;;;8.40;1.20;;;9.30;99.90;;;;;;5017608;28;20448;-78
2023/04/25 11:49:09;;;;;;;8.90;1.95;;;9.30;99.90;;;;;;5012280;28;20045;-78
2023/04/25 11:51:44;;;;;;;9.13;1.40;;;9.30;99.90;;;;;;5050507;28;20516;-76
2023/04/25 11:54:11;;;;;;;8.50;1.90;;;9.40;99.90;;;;;;5003305;28;20056;-78
2023/04/25 11:56:37;;;;;;;8.90;1.38;;;9.50;99.90;;;;;;5020213;28;20047;-79
2023/04/25 11:59:05;;;;;;;8.65;1.27;;;9.60;99.90;;;;;;5019946;28;20069;-80
2023/04/25 12:01:32;;;;;;;11.60;1.60;;;9.60;99.90;;;;;;5052836;28;20135;-77
2023/04/25 12:04:09;;;;;;;10.32;1.65;;;9.60;99.90;;;;;;5019264;28;20049;-77
2023/04/25 12:06:39;;;;;;;11.65;1.60;;;9.60;99.90;;;;;;5050859;28;20045;-77
2023/04/25 12:09:08;;;;;;;9.68;1.83;;;9.60;99.90;;;;;;5020981;28;20176;-78
2023/04/25 12:11:45;;;;;;;8.35;1.40;;;9.70;99.90;;;;;;5019871;28;20108;-77
2023/04/25 12:14:12;;;;;;;10.02;1.63;;;9.70;99.90;;;;;;5017489;28;20045;-76
2023/04/25 12:16:45;;;;;;;8.27;1.58;;;9.80;99.90;;;;;;5000534;28;20045;-76
2023/04/25 12:19:16;;;;;;;9.50;1.55;;;9.70;99.90;;;;;;5053542;28;20051;-78
2023/04/25 12:21:43;;;;;;;10.38;1.45;;;9.70;99.90;;;;;;5020432;28;20044;-76
2023/04/25 12:24:14;;;;;;;9.73;1.92;;;9.60;99.90;;;;;;5004387;28;20056;-76
2023/04/25 12:26:58;;;;;;;7.70;1.50;;;9.50;99.90;;;;;;5019590;28;20049;-76
2023/04/25 12:29:26;;;;;;;9.57;1.55;;;9.40;99.90;;;;;;5054524;28;20514;-78
2023/04/25 12:31:53;;;;;;;12.52;1.67;;;9.40;99.90;;;;;;5017322;28;20041;-79
2023/04/25 12:34:19;;;;;;;10.32;1.35;;;9.40;99.90;;;;;;5004933;28;20053;-78
2023/04/25 12:36:45;;;;;;;8.80;1.50;;;9.40;99.90;;;;;;5053329;28;20041;-78
2023/04/25 12:39:21;;;;;;;13.25;1.63;;;9.40;99.90;;;;;;5022707;28;20038;-78
2023/04/25 12:41:52;;;;;;;13.63;1.98;;;9.40;99.90;;;;;;5033414;28;20198;-79
2023/04/25 12:44:19;;;;;;;8.45;1.40;;;9.40;99.90;;;;;;5022316;28;20050;-78
2023/04/25 12:46:45;;;;;;;11.35;1.58;;;9.30;99.90;;;;;;5020905;28;20060;-79
2023/04/25 12:49:11;;;;;;;12.25;1.67;;;9.20;99.90;;;;;;5021577;28;20064;-79
2023/04/25 12:51:37;;;;;;;10.98;2.10;;;9.10;99.90;;;;;;5016159;28;20045;-78